createdAt,value
2022-12-03T00:00:28.161Z,98364.41
2022-12-03T00:02:54.782Z,98363.91
2022-12-03T00:05:21.268Z,98357.00
2022-12-03T00:07:47.708Z,98362.75
2022-12-03T00:10:14.255Z,98359.47
2022-12-03T00:12:40.674Z,98354.88
2022-12-03T00:15:07.800Z,98360.63
2022-12-03T00:17:34.172Z,98363.91
2022-12-03T00:20:00.566Z,98357.66
2022-12-03T00:22:26.962Z,98362.75
2022-12-03T00:24:53.760Z,98360.63
2022-12-03T00:27:20.359Z,98348.97
2022-12-03T00:29:46.789Z,98345.66
2022-12-03T00:32:14.070Z,98355.53
2022-12-03T00:34:40.430Z,98352.88
2022-12-03T00:37:06.890Z,98352.22
2022-12-03T00:39:33.249Z,98344.00
2022-12-03T00:41:59.621Z,98357.16
2022-12-03T00:44:26.126Z,98357.16
2022-12-03T00:46:52.514Z,98356.50
2022-12-03T00:49:18.989Z,98354.88
2022-12-03T00:51:45.430Z,98353.38
2022-12-03T00:54:12.059Z,98349.09
2022-12-03T00:56:38.476Z,98346.78
2022-12-03T00:59:04.914Z,98354.03
2022-12-03T01:01:31.372Z,98352.59
2022-12-03T01:03:57.938Z,98355.72
2022-12-03T01:06:24.305Z,98350.28
2022-12-03T01:08:50.641Z,98357.03
2022-12-03T01:11:40.114Z,98354.06
2022-12-03T01:14:17.607Z,98355.06
2022-12-03T01:16:44.410Z,98357.53
2022-12-03T01:19:15.670Z,98362.63
2022-12-03T01:21:43.005Z,98365.72
2022-12-03T01:24:09.469Z,98360.78
2022-12-03T01:26:35.956Z,98360.78
2022-12-03T01:29:02.354Z,98357.81
2022-12-03T01:31:47.771Z,98363.25
2022-12-03T01:34:14.242Z,98364.09
2022-12-03T01:36:41.027Z,98368.38
2022-12-03T01:39:07.648Z,98363.09
2022-12-03T01:41:35.717Z,98360.78
2022-12-03T01:44:04.489Z,98362.44
2022-12-03T01:46:41.841Z,98358.16
2022-12-03T01:49:15.226Z,98352.41
2022-12-03T01:51:41.698Z,98358.47
2022-12-03T01:54:16.463Z,98354.88
2022-12-03T01:56:43.237Z,98358.66
2022-12-03T01:59:15.304Z,98356.00
2022-12-03T02:01:41.702Z,98358.00
2022-12-03T02:04:12.162Z,98348.13
2022-12-03T02:06:38.719Z,98356.22
2022-12-03T02:09:08.406Z,98357.34
2022-12-03T02:11:43.535Z,98370.19
2022-12-03T02:14:13.398Z,98363.59
2022-12-03T02:16:41.915Z,98368.69
2022-12-03T02:19:28.379Z,98366.59
2022-12-03T02:22:05.139Z,98359.00
2022-12-03T02:25:15.340Z,98358.50
2022-12-03T02:27:42.461Z,98360.31
2022-12-03T02:30:10.381Z,98358.34
2022-12-03T02:32:37.319Z,98356.53
2022-12-03T02:35:04.358Z,98355.53
2022-12-03T02:37:34.851Z,98360.63
2022-12-03T02:40:07.851Z,98364.44
2022-12-03T02:42:37.266Z,98362.13
2022-12-03T02:45:11.047Z,98366.41
2022-12-03T02:48:09.235Z,98365.09
2022-12-03T02:50:40.070Z,98367.06
2022-12-03T02:53:09.544Z,98366.25
2022-12-03T02:55:37.562Z,98355.53
2022-12-03T02:58:05.003Z,98363.44
2022-12-03T03:00:31.770Z,98364.28
2022-12-03T03:02:58.405Z,98366.56
2022-12-03T03:05:25.093Z,98374.31
2022-12-03T03:07:51.884Z,98367.06
2022-12-03T03:10:22.132Z,98363.59
2022-12-03T03:12:49.333Z,98370.69
2022-12-03T03:15:16.025Z,98375.78
2022-12-03T03:17:42.818Z,98375.63
2022-12-03T03:20:11.318Z,98368.38
2022-12-03T03:22:41.315Z,98375.13
2022-12-03T03:25:12.199Z,98377.63
2022-12-03T03:27:41.163Z,98368.22
2022-12-03T03:30:09.521Z,98369.06
2022-12-03T03:32:37.123Z,98369.88
2022-12-03T03:35:06.118Z,98359.50
2022-12-03T03:37:32.673Z,98367.03
2022-12-03T03:39:59.166Z,98368.69
2022-12-03T03:42:25.689Z,98363.91
2022-12-03T03:44:52.387Z,98371.47
2022-12-03T03:47:20.052Z,98363.91
2022-12-03T03:49:47.860Z,98364.22
2022-12-03T03:52:14.150Z,98369.97
2022-12-03T03:54:40.522Z,98363.88
2022-12-03T03:57:07.268Z,98362.03
2022-12-03T03:59:33.726Z,98363.00
2022-12-03T04:02:00.050Z,98364.69
2022-12-03T04:04:30.374Z,98366.94
2022-12-03T04:06:56.881Z,98369.56
2022-12-03T04:09:23.297Z,98365.28
2022-12-03T04:12:08.619Z,98365.25
2022-12-03T04:14:34.950Z,98361.97
2022-12-03T04:17:01.312Z,98358.13
2022-12-03T04:19:27.716Z,98358.31
2022-12-03T04:22:12.520Z,98347.78
2022-12-03T04:24:38.892Z,98351.91
2022-12-03T04:27:23.681Z,98352.19
2022-12-03T04:29:50.001Z,98350.22
2022-12-03T04:32:35.217Z,98351.72
2022-12-03T04:35:20.206Z,98347.91
2022-12-03T04:37:46.605Z,98347.28
2022-12-03T04:40:31.822Z,98351.56
2022-12-03T04:42:58.145Z,98349.25
2022-12-03T04:45:24.512Z,98350.06
2022-12-03T04:47:50.849Z,98350.38
2022-12-03T04:50:17.174Z,98345.78
2022-12-03T04:52:43.595Z,98346.78
2022-12-03T04:55:10.082Z,98339.03
2022-12-03T04:57:36.462Z,98339.53
2022-12-03T05:00:05.072Z,98345.63
2022-12-03T05:02:31.480Z,98343.81
2022-12-03T05:07:33.141Z,98350.25
2022-12-03T05:09:59.530Z,98348.91
2022-12-03T05:12:25.869Z,98352.22
2022-12-03T05:14:52.570Z,98344.00
2022-12-03T05:17:19.013Z,98354.38
2022-12-03T05:20:04.219Z,98344.22
2022-12-03T05:22:30.561Z,98342.56
2022-12-03T05:24:57.046Z,98340.75
2022-12-03T05:27:24.262Z,98343.56
2022-12-03T05:29:51.132Z,98343.06
2022-12-03T05:32:17.529Z,98345.53
2022-12-03T05:34:43.954Z,98344.56
2022-12-03T05:37:10.311Z,98339.94
2022-12-03T05:39:36.845Z,98349.50
2022-12-03T05:42:21.954Z,98339.94
2022-12-03T05:44:48.286Z,98339.78
2022-12-03T05:47:14.860Z,98337.00
2022-12-03T05:49:41.378Z,98337.16
2022-12-03T05:52:07.925Z,98336.34
2022-12-03T05:54:34.250Z,98332.88
2022-12-03T05:57:00.676Z,98339.63
2022-12-03T05:59:27.161Z,98337.66
2022-12-03T06:01:53.492Z,98335.50
2022-12-03T06:04:19.853Z,98338.63
2022-12-03T06:06:46.193Z,98330.91
2022-12-03T06:09:12.506Z,98331.72
2022-12-03T06:11:40.168Z,98339.78
2022-12-03T06:14:06.643Z,98333.03
2022-12-03T06:16:33.024Z,98332.88
2022-12-03T06:18:59.457Z,98338.63
2022-12-03T06:21:25.813Z,98335.69
2022-12-03T06:23:52.150Z,98338.81
2022-12-03T06:26:18.570Z,98335.03
2022-12-03T06:28:46.390Z,98344.25
2022-12-03T06:31:13.265Z,98347.53
2022-12-03T06:33:39.767Z,98350.81
2022-12-03T06:36:06.619Z,98354.28
2022-12-03T06:38:32.975Z,98355.28
2022-12-03T06:40:59.424Z,98363.16
2022-12-03T06:43:40.946Z,98357.25
2022-12-03T06:46:07.331Z,98353.31
2022-12-03T06:48:33.677Z,98360.06
2022-12-03T06:51:00.140Z,98353.81
2022-12-03T06:53:26.473Z,98354.97
2022-12-03T06:55:52.910Z,98363.16
2022-12-03T06:58:19.234Z,98358.44
2022-12-03T07:00:45.848Z,98357.44
2022-12-03T07:03:12.337Z,98359.53
2022-12-03T07:13:36.377Z,98365.28
2022-12-03T07:18:38.039Z,98371.88
2022-12-03T07:21:04.428Z,98361.16
2022-12-03T07:23:30.747Z,98369.41
2022-12-03T07:25:57.135Z,98358.72
2022-12-03T07:28:23.449Z,98369.75
2022-12-03T07:30:49.952Z,98379.28
2022-12-03T07:33:16.280Z,98374.69
2022-12-03T07:35:42.706Z,98378.44
2022-12-03T07:38:09.035Z,98365.97
2022-12-03T07:40:35.362Z,98372.50
2022-12-03T07:43:01.805Z,98365.63
2022-12-03T07:45:28.250Z,98360.84
2022-12-03T07:47:54.598Z,98359.72
2022-12-03T07:50:20.964Z,98360.06
2022-12-03T07:52:47.397Z,98363.88
2022-12-03T07:55:13.982Z,98369.63
2022-12-03T07:57:40.365Z,98353.00
2022-12-03T08:00:07.566Z,98355.78
2022-12-03T08:02:34.000Z,98354.78
2022-12-03T08:05:00.413Z,98362.81
2022-12-03T08:07:26.767Z,98357.25
2022-12-03T08:09:53.133Z,98355.91
2022-12-03T08:12:42.852Z,98359.88
2022-12-03T08:15:13.908Z,98362.38
2022-12-03T08:17:42.197Z,98359.09
2022-12-03T08:20:14.384Z,98350.06
2022-12-03T08:22:42.569Z,98345.16
2022-12-03T08:25:35.463Z,98342.31
2022-12-03T08:28:12.048Z,98344.00
2022-12-03T08:30:39.934Z,98334.13
2022-12-03T08:33:13.416Z,98337.91
2022-12-03T08:35:44.693Z,98330.00
2022-12-03T08:38:12.847Z,98339.09
2022-12-03T08:40:41.569Z,98335.47
2022-12-03T08:43:26.091Z,98332.34
2022-12-03T08:45:57.022Z,98331.50
2022-12-03T08:48:36.674Z,98328.69
2022-12-03T08:51:11.089Z,98331.31
2022-12-03T08:53:42.955Z,98322.59
2022-12-03T08:56:23.942Z,98321.63
2022-12-03T08:59:21.174Z,98323.41
2022-12-03T09:01:48.832Z,98326.88
2022-12-03T09:04:27.584Z,98340.53
2022-12-03T09:06:54.756Z,98339.56
2022-12-03T09:09:21.929Z,98327.22
2022-12-03T09:11:48.415Z,98336.44
2022-12-03T09:14:18.474Z,98342.34
2022-12-03T09:16:45.429Z,98344.16
2022-12-03T09:19:11.872Z,98345.97
2022-12-03T09:21:38.225Z,98351.75
2022-12-03T09:24:04.851Z,98352.88
2022-12-03T09:26:31.348Z,98346.78
2022-12-03T09:28:57.725Z,98352.72
2022-12-03T09:31:24.386Z,98348.59
2022-12-03T09:33:51.005Z,98347.78
2022-12-03T09:36:17.397Z,98348.78
2022-12-03T09:38:47.704Z,98348.13
2022-12-03T09:41:14.682Z,98344.66
2022-12-03T09:44:03.487Z,98350.75
2022-12-03T09:46:28.979Z,98337.25
2022-12-03T09:48:55.462Z,98341.69
2022-12-03T09:51:22.609Z,98342.03
2022-12-03T09:53:49.150Z,98343.00
2022-12-03T09:56:20.404Z,98334.44
2022-12-03T09:58:46.925Z,98340.84
2022-12-03T10:01:15.170Z,98342.72
2022-12-03T10:03:48.689Z,98329.19
2022-12-03T10:06:21.250Z,98340.84
2022-12-03T10:08:49.985Z,98337.06
2022-12-03T10:11:18.633Z,98337.06
2022-12-03T10:13:46.028Z,98334.78
2022-12-03T10:16:15.430Z,98316.84
2022-12-03T10:18:47.141Z,98308.78
2022-12-03T10:21:20.307Z,98299.19
2022-12-03T10:23:50.768Z,98290.50
2022-12-03T10:26:35.811Z,98297.75
2022-12-03T10:29:02.150Z,98296.44
2022-12-03T10:31:35.629Z,98299.72
2022-12-03T10:34:01.994Z,98290.50
2022-12-03T10:36:28.377Z,98288.88
2022-12-03T10:39:15.808Z,98293.28
2022-12-03T10:41:44.143Z,98289.50
2022-12-03T10:44:25.942Z,98296.91
2022-12-03T10:47:13.263Z,98294.78
2022-12-03T10:49:41.571Z,98293.28
2022-12-03T10:52:25.709Z,98285.69
2022-12-03T10:54:52.759Z,98293.09
2022-12-03T10:57:19.500Z,98284.69
2022-12-03T10:59:45.875Z,98283.84
2022-12-03T11:02:19.955Z,98284.69
2022-12-03T11:04:46.797Z,98285.84
2022-12-03T11:07:16.040Z,98281.09
2022-12-03T11:09:45.310Z,98276.63
2022-12-03T11:12:22.030Z,98277.78
2022-12-03T11:14:54.919Z,98269.56
2022-12-03T11:17:42.867Z,98269.56
2022-12-03T11:20:10.346Z,98269.91
2022-12-03T11:22:41.388Z,98257.53
2022-12-03T11:25:26.036Z,98256.69
2022-12-03T11:28:13.486Z,98251.88
2022-12-03T11:30:49.141Z,98246.09
2022-12-03T11:33:32.934Z,98240.06
2022-12-03T11:36:08.099Z,98239.72
2022-12-03T11:38:37.491Z,98244.88
2022-12-03T11:41:23.782Z,98247.00
2022-12-03T11:43:53.168Z,98235.75
2022-12-03T11:46:36.291Z,98236.41
2022-12-03T11:49:18.744Z,98228.16
2022-12-03T11:51:45.251Z,98236.25
2022-12-03T11:54:16.368Z,98230.97
2022-12-03T11:56:48.953Z,98225.91
2022-12-03T11:59:17.236Z,98223.44
2022-12-03T12:01:44.470Z,98226.59
2022-12-03T12:04:30.001Z,98222.28
2022-12-03T12:10:48.450Z,98211.53
2022-12-03T12:13:30.195Z,98209.88
2022-12-03T12:16:05.074Z,98211.38
2022-12-03T12:18:38.572Z,98216.50
2022-12-03T12:21:43.698Z,98207.81
2022-12-03T12:24:30.994Z,98212.41
2022-12-03T12:27:06.135Z,98200.75
2022-12-03T12:29:32.573Z,98208.97
2022-12-03T12:32:15.120Z,98202.22
2022-12-03T12:34:44.612Z,98200.75
2022-12-03T12:37:28.145Z,98198.13
2022-12-03T12:39:56.910Z,98202.22
2022-12-03T12:42:34.826Z,98199.25
2022-12-03T12:45:16.531Z,98190.69
2022-12-03T12:47:49.903Z,98195.31
2022-12-03T12:50:18.296Z,98193.31
2022-12-03T12:52:51.546Z,98183.75
2022-12-03T12:55:18.953Z,98187.38
2022-12-03T12:57:45.359Z,98184.72
2022-12-03T13:00:23.336Z,98182.91
2022-12-03T13:02:55.202Z,98181.56
2022-12-03T13:05:21.849Z,98184.88
2022-12-03T13:07:48.369Z,98173.31
2022-12-03T13:10:24.413Z,98173.66
2022-12-03T13:12:50.867Z,98167.41
2022-12-03T13:15:35.810Z,98176.47
2022-12-03T13:18:17.870Z,98174.69
2022-12-03T13:20:44.211Z,98178.34
2022-12-03T13:23:25.990Z,98175.53
2022-12-03T13:26:09.255Z,98174.03
2022-12-03T13:28:41.714Z,98170.22
2022-12-03T13:31:26.130Z,98168.41
2022-12-03T13:33:53.622Z,98169.91
2022-12-03T13:36:22.472Z,98179.31
2022-12-03T13:38:49.280Z,98184.59
2022-12-03T13:41:38.256Z,98179.84
2022-12-03T13:44:17.955Z,98177.25
2022-12-03T13:46:45.433Z,98171.78
2022-12-03T13:49:20.011Z,98167.22
2022-12-03T13:51:47.234Z,98170.31
2022-12-03T13:54:20.343Z,98178.41
2022-12-03T13:56:46.845Z,98165.41
2022-12-03T13:59:14.120Z,98165.41
2022-12-03T14:01:40.699Z,98161.94
2022-12-03T14:04:07.243Z,98167.22
2022-12-03T14:06:33.822Z,98164.56
2022-12-03T14:09:00.378Z,98163.28
2022-12-03T14:11:45.119Z,98159.00
2022-12-03T14:14:11.623Z,98151.06
2022-12-03T14:16:38.031Z,98160.31
2022-12-03T14:19:04.569Z,98158.66
2022-12-03T14:21:30.938Z,98155.41
2022-12-03T14:23:57.303Z,98163.78
2022-12-03T14:26:23.666Z,98155.06
2022-12-03T14:28:50.128Z,98157.03
2022-12-03T14:31:16.554Z,98159.53
2022-12-03T14:33:43.002Z,98159.34
2022-12-03T14:36:09.537Z,98161.19
2022-12-03T14:38:35.882Z,98160.84
2022-12-03T14:41:02.383Z,98160.03
2022-12-03T14:43:28.734Z,98154.78
2022-12-03T14:45:55.273Z,98160.34
2022-12-03T14:48:21.739Z,98157.91
2022-12-03T14:50:48.191Z,98158.88
2022-12-03T14:53:14.530Z,98161.50
2022-12-03T14:55:40.959Z,98166.41
2022-12-03T14:58:07.283Z,98163.13
2022-12-03T15:00:33.704Z,98160.69
2022-12-03T15:03:00.274Z,98153.28
2022-12-03T15:05:28.764Z,98151.97
2022-12-03T15:07:55.493Z,98149.31
2022-12-03T15:10:21.921Z,98155.75
2022-12-03T15:12:48.345Z,98152.47
2022-12-03T15:15:14.989Z,98150.66
2022-12-03T15:17:41.888Z,98156.25
2022-12-03T15:20:08.814Z,98143.59
2022-12-03T15:22:35.258Z,98142.25
2022-12-03T15:25:03.338Z,98147.88
2022-12-03T15:27:29.810Z,98143.59
2022-12-03T15:29:56.472Z,98149.81
2022-12-03T15:32:23.127Z,98151.81
2022-12-03T15:34:51.277Z,98154.44
2022-12-03T15:37:17.714Z,98164.81
2022-12-03T15:39:48.375Z,98160.38
2022-12-03T15:42:15.406Z,98160.03
2022-12-03T15:44:41.737Z,98165.94
2022-12-03T15:47:08.174Z,98165.75
2022-12-03T15:49:34.582Z,98165.28
2022-12-03T15:52:00.927Z,98162.81
2022-12-03T15:54:27.232Z,98161.00
2022-12-03T15:56:57.290Z,98156.72
2022-12-03T15:59:24.042Z,98148.19
2022-12-03T16:01:50.485Z,98149.81
2022-12-03T16:04:17.175Z,98150.31
2022-12-03T16:06:43.489Z,98160.84
2022-12-03T16:09:09.921Z,98158.41
2022-12-03T16:11:36.250Z,98154.63
2022-12-03T16:14:02.601Z,98166.41
2022-12-03T16:16:29.147Z,98169.06
2022-12-03T16:18:55.544Z,98171.56
2022-12-03T16:21:26.484Z,98164.63
2022-12-03T16:23:53.637Z,98165.59
2022-12-03T16:26:19.940Z,98165.47
2022-12-03T16:28:46.303Z,98168.41
2022-12-03T16:31:12.733Z,98164.78
2022-12-03T16:33:39.105Z,98174.00
2022-12-03T16:36:05.617Z,98166.75
2022-12-03T16:38:33.542Z,98167.91
2022-12-03T16:41:01.469Z,98174.47
2022-12-03T16:43:28.173Z,98171.56
2022-12-03T16:46:21.051Z,98173.66
2022-12-03T16:48:48.223Z,98173.50
2022-12-03T16:51:15.189Z,98166.09
2022-12-03T16:53:41.652Z,98165.28
2022-12-03T16:56:08.827Z,98165.59
2022-12-03T16:58:35.316Z,98161.00
2022-12-03T17:01:01.726Z,98169.88
2022-12-03T17:03:33.607Z,98161.00
2022-12-03T17:06:00.795Z,98154.91
2022-12-03T17:08:27.213Z,98162.31
2022-12-03T17:10:53.613Z,98160.66
2022-12-03T17:13:20.100Z,98162.81
2022-12-03T17:15:46.504Z,98154.91
2022-12-03T17:18:12.879Z,98156.72
2022-12-03T17:20:39.184Z,98152.44
2022-12-03T17:23:05.491Z,98154.59
2022-12-03T17:25:32.025Z,98150.81
2022-12-03T17:27:58.405Z,98146.03
2022-12-03T17:30:24.752Z,98149.00
2022-12-03T17:32:51.084Z,98146.38
2022-12-03T17:35:18.383Z,98136.53
2022-12-03T17:37:45.131Z,98134.03
2022-12-03T17:40:14.045Z,98129.09
2022-12-03T17:42:40.555Z,98138.47
2022-12-03T17:45:07.620Z,98136.34
2022-12-03T17:47:34.055Z,98132.88
2022-12-03T17:50:00.524Z,98129.59
2022-12-03T17:52:26.935Z,98115.94
2022-12-03T17:55:10.760Z,98126.13
2022-12-03T17:57:39.365Z,98123.03
2022-12-03T18:00:06.391Z,98127.28
2022-12-03T18:02:32.750Z,98128.28
2022-12-03T18:04:59.336Z,98128.44
2022-12-03T18:07:25.749Z,98136.66
2022-12-03T18:09:53.330Z,98140.63
2022-12-03T18:12:20.020Z,98137.16
2022-12-03T18:14:46.370Z,98137.00
2022-12-03T18:17:13.871Z,98132.72
2022-12-03T18:19:40.282Z,98133.88
2022-12-03T18:22:06.626Z,98132.56
2022-12-03T18:24:33.331Z,98132.56
2022-12-03T18:26:59.673Z,98129.44
2022-12-03T18:29:26.154Z,98120.06
2022-12-03T18:31:52.743Z,98130.44
2022-12-03T18:34:19.143Z,98122.69
2022-12-03T18:36:45.819Z,98122.38
2022-12-03T18:39:22.953Z,98125.31
2022-12-03T18:41:49.417Z,98118.59
2022-12-03T18:44:15.856Z,98119.06
2022-12-03T18:46:53.314Z,98110.88
2022-12-03T18:49:20.915Z,98113.34
2022-12-03T18:51:48.441Z,98106.75
2022-12-03T18:54:15.405Z,98105.59
2022-12-03T18:56:41.941Z,98117.94
2022-12-03T18:59:09.076Z,98112.66
2022-12-03T19:01:35.642Z,98104.59
2022-12-03T19:04:02.128Z,98102.97
2022-12-03T19:06:30.348Z,98101.97
2022-12-03T19:08:56.837Z,98103.13
2022-12-03T19:11:23.423Z,98101.81
2022-12-03T19:13:49.898Z,98107.88
2022-12-03T19:16:17.130Z,98099.34
2022-12-03T19:18:44.211Z,98102.78
2022-12-03T19:21:13.578Z,98100.50
2022-12-03T19:23:40.031Z,98106.25
2022-12-03T19:26:08.314Z,98099.38
2022-12-03T19:28:35.317Z,98098.03
2022-12-03T19:31:08.608Z,98095.09
2022-12-03T19:33:35.575Z,98093.94
2022-12-03T19:36:04.318Z,98096.41
2022-12-03T19:38:31.539Z,98088.34
2022-12-03T19:41:09.178Z,98079.94
2022-12-03T19:43:36.803Z,98075.19
2022-12-03T19:46:04.692Z,98078.31
2022-12-03T19:48:32.195Z,98073.69
2022-12-03T19:51:19.802Z,98070.25
2022-12-03T19:53:46.048Z,98068.44
2022-12-03T19:56:18.389Z,98076.16
2022-12-03T19:58:46.377Z,98068.94
2022-12-03T20:01:19.333Z,98074.53
2022-12-03T20:03:48.073Z,98077.00
2022-12-03T20:06:16.405Z,98084.22
2022-12-03T20:08:43.038Z,98074.38
2022-12-03T20:11:15.406Z,98078.47
2022-12-03T20:13:42.889Z,98073.53
2022-12-03T20:16:12.573Z,98075.19
2022-12-03T20:18:40.456Z,98079.94
2022-12-03T20:21:07.151Z,98082.41
2022-12-03T20:23:33.734Z,98082.09
2022-12-03T20:26:00.511Z,98078.47
2022-12-03T20:28:28.299Z,98072.22
2022-12-03T20:31:02.741Z,98076.16
2022-12-03T20:33:29.268Z,98080.75
2022-12-03T20:35:56.921Z,98071.72
2022-12-03T20:38:26.128Z,98084.41
2022-12-03T20:40:53.839Z,98072.53
2022-12-03T20:43:20.519Z,98070.41
2022-12-03T20:45:46.913Z,98066.59
2022-12-03T20:48:13.366Z,98065.78
2022-12-03T20:50:39.871Z,98064.47
2022-12-03T20:53:24.194Z,98064.94
2022-12-03T20:55:58.477Z,98057.69
2022-12-03T20:58:25.031Z,98067.91
2022-12-03T21:00:51.561Z,98060.66
2022-12-03T21:03:17.999Z,98067.41
2022-12-03T21:05:44.434Z,98069.38
2022-12-03T21:08:11.861Z,98064.94
2022-12-03T21:10:45.870Z,98056.72
2022-12-03T21:13:16.797Z,98063.31
2022-12-03T21:15:44.234Z,98050.31
2022-12-03T21:18:13.971Z,98048.31
2022-12-03T21:20:45.656Z,98044.88
2022-12-03T21:23:13.202Z,98039.97
2022-12-03T21:25:40.391Z,98045.56
2022-12-03T21:28:08.639Z,98041.94
2022-12-03T21:30:38.374Z,98046.53
2022-12-03T21:33:06.044Z,98042.09
2022-12-03T21:35:32.642Z,98032.53
2022-12-03T21:37:59.089Z,98037.97
2022-12-03T21:40:25.407Z,98033.66
2022-12-03T21:42:51.768Z,98028.06
2022-12-03T21:45:18.218Z,98036.75
2022-12-03T21:47:48.069Z,98030.34
2022-12-03T21:50:14.639Z,98031.34
2022-12-03T21:52:41.183Z,98029.34
2022-12-03T21:55:07.891Z,98032.59
2022-12-03T21:57:37.916Z,98035.06
2022-12-03T22:00:07.678Z,98030.78
2022-12-03T22:02:34.368Z,98033.06
2022-12-03T22:05:00.742Z,98030.47
2022-12-03T22:07:27.154Z,98034.91
2022-12-03T22:09:53.947Z,98039.06
2022-12-03T22:12:20.532Z,98030.66
2022-12-03T22:14:46.875Z,98034.44
2022-12-03T22:17:13.301Z,98029.19
2022-12-03T22:19:39.844Z,98032.28
2022-12-03T22:22:06.174Z,98030.34
2022-12-03T22:24:32.534Z,98029.66
2022-12-03T22:26:58.922Z,98032.63
2022-12-03T22:29:25.303Z,98022.75
2022-12-03T22:31:51.694Z,98005.66
2022-12-03T22:34:18.049Z,97988.22
2022-12-03T22:36:44.476Z,97984.25
2022-12-03T22:39:10.905Z,97989.06
2022-12-03T22:41:37.259Z,97994.84
2022-12-03T22:44:03.872Z,97982.19
2022-12-03T22:46:30.369Z,97984.69
2022-12-03T22:49:00.515Z,97986.31
2022-12-03T22:51:30.251Z,97974.00
2022-12-03T22:53:58.451Z,97970.75
2022-12-03T22:56:26.310Z,97977.34
2022-12-03T22:58:52.605Z,97977.00
2022-12-03T23:01:27.956Z,97970.78
2022-12-03T23:03:54.644Z,97972.59
2022-12-03T23:06:22.546Z,97974.88
2022-12-03T23:08:49.042Z,97977.50
2022-12-03T23:11:15.615Z,97986.06
2022-12-03T23:13:42.396Z,97977.53
2022-12-03T23:16:14.293Z,97984.38
2022-12-03T23:18:41.084Z,97992.25
2022-12-03T23:21:07.768Z,97991.91
2022-12-03T23:23:34.264Z,97997.69
2022-12-03T23:26:02.784Z,98000.13
2022-12-03T23:28:30.938Z,97995.66
2022-12-03T23:30:57.666Z,97993.50
2022-12-03T23:33:24.441Z,97999.06
2022-12-03T23:35:51.028Z,97995.44
2022-12-03T23:38:17.744Z,97989.41
2022-12-03T23:40:48.069Z,97981.03
2022-12-03T23:43:15.278Z,97978.88
2022-12-03T23:45:41.668Z,97979.03
2022-12-03T23:48:08.048Z,97991.56
2022-12-03T23:50:34.855Z,97984.13
2022-12-03T23:53:01.236Z,97980.97
2022-12-03T23:55:27.587Z,97982.16
2022-12-03T23:57:53.926Z,97977.22
